sensor_id;sensor_type;location;lat;lon;timestamp;temperature;humidity
8862;DHT22;4799;50.996;4.754;2022-08-14T00:02:24;21.50;79.00
8862;DHT22;4799;50.996;4.754;2022-08-14T00:04:50;21.40;80.60
8862;DHT22;4799;50.996;4.754;2022-08-14T00:07:16;21.40;80.60
8862;DHT22;4799;50.996;4.754;2022-08-14T00:09:43;21.30;81.40
8862;DHT22;4799;50.996;4.754;2022-08-14T00:12:09;21.30;82.90
8862;DHT22;4799;50.996;4.754;2022-08-14T00:14:35;21.20;84.50
8862;DHT22;4799;50.996;4.754;2022-08-14T00:17:03;21.10;85.10
8862;DHT22;4799;50.996;4.754;2022-08-14T00:19:29;21.10;86.40
8862;DHT22;4799;50.996;4.754;2022-08-14T00:21:54;21.00;86.60
8862;DHT22;4799;50.996;4.754;2022-08-14T00:24:21;20.90;87.80
8862;DHT22;4799;50.996;4.754;2022-08-14T00:26:47;20.80;88.20
8862;DHT22;4799;50.996;4.754;2022-08-14T00:29:12;20.70;89.70
8862;DHT22;4799;50.996;4.754;2022-08-14T00:31:38;20.70;90.20
8862;DHT22;4799;50.996;4.754;2022-08-14T00:34:04;20.70;90.30
8862;DHT22;4799;50.996;4.754;2022-08-14T00:36:30;20.60;90.50
8862;DHT22;4799;50.996;4.754;2022-08-14T00:38:55;20.60;90.10
8862;DHT22;4799;50.996;4.754;2022-08-14T00:41:21;20.50;90.90
8862;DHT22;4799;50.996;4.754;2022-08-14T00:43:48;20.40;91.60
8862;DHT22;4799;50.996;4.754;2022-08-14T00:46:13;20.40;92.00
8862;DHT22;4799;50.996;4.754;2022-08-14T00:48:39;20.40;92.20
8862;DHT22;4799;50.996;4.754;2022-08-14T00:51:09;20.30;92.20
8862;DHT22;4799;50.996;4.754;2022-08-14T00:53:36;20.30;92.70
8862;DHT22;4799;50.996;4.754;2022-08-14T00:56:03;20.20;92.80
8862;DHT22;4799;50.996;4.754;2022-08-14T00:58:29;20.20;92.80
8862;DHT22;4799;50.996;4.754;2022-08-14T01:01:00;20.10;93.10
8862;DHT22;4799;50.996;4.754;2022-08-14T01:03:26;20.10;93.10
8862;DHT22;4799;50.996;4.754;2022-08-14T01:05:57;20.00;93.50
8862;DHT22;4799;50.996;4.754;2022-08-14T01:08:29;20.00;93.90
8862;DHT22;4799;50.996;4.754;2022-08-14T01:10:56;20.00;94.20
8862;DHT22;4799;50.996;4.754;2022-08-14T01:13:34;19.90;93.90
8862;DHT22;4799;50.996;4.754;2022-08-14T01:16:03;19.90;94.10
8862;DHT22;4799;50.996;4.754;2022-08-14T01:18:30;19.80;93.90
8862;DHT22;4799;50.996;4.754;2022-08-14T01:21:20;19.80;93.90
8862;DHT22;4799;50.996;4.754;2022-08-14T01:23:48;19.70;93.90
8862;DHT22;4799;50.996;4.754;2022-08-14T01:26:20;19.70;93.90
8862;DHT22;4799;50.996;4.754;2022-08-14T01:28:52;19.70;93.90
8862;DHT22;4799;50.996;4.754;2022-08-14T01:31:25;19.60;94.10
8862;DHT22;4799;50.996;4.754;2022-08-14T01:33:54;19.50;94.50
8862;DHT22;4799;50.996;4.754;2022-08-14T01:36:22;19.50;94.00
8862;DHT22;4799;50.996;4.754;2022-08-14T01:38:50;19.40;94.70
8862;DHT22;4799;50.996;4.754;2022-08-14T01:41:21;19.40;94.60
8862;DHT22;4799;50.996;4.754;2022-08-14T01:43:52;19.30;95.30
8862;DHT22;4799;50.996;4.754;2022-08-14T01:46:21;19.20;96.40
8862;DHT22;4799;50.996;4.754;2022-08-14T01:48:47;19.10;96.60
8862;DHT22;4799;50.996;4.754;2022-08-14T01:51:15;19.10;96.80
8862;DHT22;4799;50.996;4.754;2022-08-14T01:53:44;19.00;96.90
8862;DHT22;4799;50.996;4.754;2022-08-14T01:56:14;19.00;97.00
8862;DHT22;4799;50.996;4.754;2022-08-14T01:58:46;19.00;96.90
8862;DHT22;4799;50.996;4.754;2022-08-14T02:01:18;19.00;97.30
8862;DHT22;4799;50.996;4.754;2022-08-14T02:03:45;19.00;97.50
8862;DHT22;4799;50.996;4.754;2022-08-14T02:06:11;18.90;97.40
8862;DHT22;4799;50.996;4.754;2022-08-14T02:08:39;18.90;97.50
8862;DHT22;4799;50.996;4.754;2022-08-14T02:11:08;18.80;97.70
8862;DHT22;4799;50.996;4.754;2022-08-14T02:13:55;18.80;97.90
8862;DHT22;4799;50.996;4.754;2022-08-14T02:16:27;18.70;98.00
8862;DHT22;4799;50.996;4.754;2022-08-14T02:18:56;18.70;98.30
8862;DHT22;4799;50.996;4.754;2022-08-14T02:21:23;18.60;98.40
8862;DHT22;4799;50.996;4.754;2022-08-14T02:23:52;18.60;98.40
8862;DHT22;4799;50.996;4.754;2022-08-14T02:26:22;18.60;98.40
8862;DHT22;4799;50.996;4.754;2022-08-14T02:28:51;18.50;98.40
8862;DHT22;4799;50.996;4.754;2022-08-14T02:31:17;18.40;98.60
8862;DHT22;4799;50.996;4.754;2022-08-14T02:33:44;18.40;98.80
8862;DHT22;4799;50.996;4.754;2022-08-14T02:36:10;18.40;98.90
8862;DHT22;4799;50.996;4.754;2022-08-14T02:38:37;18.30;99.10
8862;DHT22;4799;50.996;4.754;2022-08-14T02:41:03;18.30;99.40
8862;DHT22;4799;50.996;4.754;2022-08-14T02:43:30;18.30;99.50
8862;DHT22;4799;50.996;4.754;2022-08-14T02:45:57;18.20;99.80
8862;DHT22;4799;50.996;4.754;2022-08-14T02:48:23;18.10;99.80
8862;DHT22;4799;50.996;4.754;2022-08-14T02:51:00;18.10;99.90
8862;DHT22;4799;50.996;4.754;2022-08-14T02:53:25;18.00;99.90
8862;DHT22;4799;50.996;4.754;2022-08-14T02:55:51;18.00;99.90
8862;DHT22;4799;50.996;4.754;2022-08-14T02:58:18;17.90;99.90
8862;DHT22;4799;50.996;4.754;2022-08-14T03:00:45;17.90;99.90
8862;DHT22;4799;50.996;4.754;2022-08-14T03:03:13;17.90;99.90
8862;DHT22;4799;50.996;4.754;2022-08-14T03:05:40;17.90;99.90
8862;DHT22;4799;50.996;4.754;2022-08-14T03:08:11;17.90;99.90
8862;DHT22;4799;50.996;4.754;2022-08-14T03:10:37;17.90;99.90
8862;DHT22;4799;50.996;4.754;2022-08-14T03:13:03;17.80;99.90
8862;DHT22;4799;50.996;4.754;2022-08-14T03:15:33;17.80;99.90
8862;DHT22;4799;50.996;4.754;2022-08-14T03:18:09;17.70;99.90
8862;DHT22;4799;50.996;4.754;2022-08-14T03:20:35;17.70;99.90
8862;DHT22;4799;50.996;4.754;2022-08-14T03:23:00;17.70;99.90
8862;DHT22;4799;50.996;4.754;2022-08-14T03:25:27;17.70;99.90
8862;DHT22;4799;50.996;4.754;2022-08-14T03:28:00;17.60;99.90
8862;DHT22;4799;50.996;4.754;2022-08-14T03:30:29;17.60;99.90
8862;DHT22;4799;50.996;4.754;2022-08-14T03:32:57;17.60;99.90
8862;DHT22;4799;50.996;4.754;2022-08-14T03:35:23;17.60;99.90
8862;DHT22;4799;50.996;4.754;2022-08-14T03:37:49;17.50;99.90
8862;DHT22;4799;50.996;4.754;2022-08-14T03:40:21;17.50;99.90
8862;DHT22;4799;50.996;4.754;2022-08-14T03:42:50;17.50;99.90
8862;DHT22;4799;50.996;4.754;2022-08-14T03:45:16;17.40;99.90
8862;DHT22;4799;50.996;4.754;2022-08-14T03:47:43;17.40;99.90
8862;DHT22;4799;50.996;4.754;2022-08-14T03:50:10;17.30;99.90
8862;DHT22;4799;50.996;4.754;2022-08-14T03:52:40;17.30;99.90
8862;DHT22;4799;50.996;4.754;2022-08-14T03:55:09;17.20;99.90
8862;DHT22;4799;50.996;4.754;2022-08-14T03:57:37;17.20;99.90
8862;DHT22;4799;50.996;4.754;2022-08-14T04:00:06;17.20;99.90
8862;DHT22;4799;50.996;4.754;2022-08-14T04:02:33;17.20;99.90
8862;DHT22;4799;50.996;4.754;2022-08-14T04:05:00;17.20;99.90
8862;DHT22;4799;50.996;4.754;2022-08-14T04:07:26;17.20;99.90
8862;DHT22;4799;50.996;4.754;2022-08-14T04:09:52;17.10;99.90
8862;DHT22;4799;50.996;4.754;2022-08-14T04:12:18;17.10;99.90
8862;DHT22;4799;50.996;4.754;2022-08-14T04:14:44;17.00;99.90
8862;DHT22;4799;50.996;4.754;2022-08-14T04:17:10;17.00;99.90
8862;DHT22;4799;50.996;4.754;2022-08-14T04:19:36;17.00;99.90
8862;DHT22;4799;50.996;4.754;2022-08-14T04:22:02;17.00;99.90
8862;DHT22;4799;50.996;4.754;2022-08-14T04:24:28;16.90;99.90
8862;DHT22;4799;50.996;4.754;2022-08-14T04:26:54;16.90;99.90
8862;DHT22;4799;50.996;4.754;2022-08-14T04:29:20;16.80;99.90
8862;DHT22;4799;50.996;4.754;2022-08-14T04:31:46;16.80;99.90
8862;DHT22;4799;50.996;4.754;2022-08-14T04:34:12;16.80;99.90
8862;DHT22;4799;50.996;4.754;2022-08-14T04:36:38;16.80;99.90
8862;DHT22;4799;50.996;4.754;2022-08-14T04:39:23;16.80;99.90
8862;DHT22;4799;50.996;4.754;2022-08-14T04:42:07;16.80;99.90
8862;DHT22;4799;50.996;4.754;2022-08-14T04:44:51;16.80;99.90
8862;DHT22;4799;50.996;4.754;2022-08-14T04:47:17;16.80;99.90
8862;DHT22;4799;50.996;4.754;2022-08-14T04:50:03;16.80;99.90
8862;DHT22;4799;50.996;4.754;2022-08-14T04:52:29;16.90;99.90
8862;DHT22;4799;50.996;4.754;2022-08-14T04:54:55;16.90;99.90
8862;DHT22;4799;50.996;4.754;2022-08-14T04:57:22;17.00;99.90
8862;DHT22;4799;50.996;4.754;2022-08-14T04:59:47;17.10;99.90
8862;DHT22;4799;50.996;4.754;2022-08-14T05:02:13;17.10;99.90
8862;DHT22;4799;50.996;4.754;2022-08-14T05:04:41;17.20;99.90
8862;DHT22;4799;50.996;4.754;2022-08-14T05:07:06;17.10;99.90
8862;DHT22;4799;50.996;4.754;2022-08-14T05:09:32;17.20;99.90
8862;DHT22;4799;50.996;4.754;2022-08-14T05:11:58;17.30;99.90
8862;DHT22;4799;50.996;4.754;2022-08-14T05:14:24;17.30;99.90
8862;DHT22;4799;50.996;4.754;2022-08-14T05:16:51;17.30;99.90
8862;DHT22;4799;50.996;4.754;2022-08-14T05:19:17;17.40;99.90
8862;DHT22;4799;50.996;4.754;2022-08-14T05:21:42;17.40;99.90
8862;DHT22;4799;50.996;4.754;2022-08-14T05:24:08;17.40;99.90
8862;DHT22;4799;50.996;4.754;2022-08-14T05:26:37;17.50;99.90
8862;DHT22;4799;50.996;4.754;2022-08-14T05:29:06;17.50;99.90
8862;DHT22;4799;50.996;4.754;2022-08-14T05:31:34;17.50;99.90
8862;DHT22;4799;50.996;4.754;2022-08-14T05:34:06;17.50;99.90
8862;DHT22;4799;50.996;4.754;2022-08-14T05:36:32;17.50;99.90
8862;DHT22;4799;50.996;4.754;2022-08-14T05:38:59;17.60;99.90
8862;DHT22;4799;50.996;4.754;2022-08-14T05:41:25;17.60;99.90
8862;DHT22;4799;50.996;4.754;2022-08-14T05:43:51;17.70;99.90
8862;DHT22;4799;50.996;4.754;2022-08-14T05:46:18;17.70;99.90
8862;DHT22;4799;50.996;4.754;2022-08-14T05:48:52;17.80;99.90
8862;DHT22;4799;50.996;4.754;2022-08-14T05:51:18;17.90;99.90
8862;DHT22;4799;50.996;4.754;2022-08-14T05:53:45;17.90;99.90
8862;DHT22;4799;50.996;4.754;2022-08-14T05:56:11;18.00;99.90
8862;DHT22;4799;50.996;4.754;2022-08-14T05:58:37;18.10;99.90
8862;DHT22;4799;50.996;4.754;2022-08-14T06:01:04;18.20;99.90
8862;DHT22;4799;50.996;4.754;2022-08-14T06:03:29;18.20;99.90
8862;DHT22;4799;50.996;4.754;2022-08-14T06:05:55;18.30;99.90
8862;DHT22;4799;50.996;4.754;2022-08-14T06:08:26;18.40;99.90
8862;DHT22;4799;50.996;4.754;2022-08-14T06:10:54;18.50;99.90
8862;DHT22;4799;50.996;4.754;2022-08-14T06:13:20;18.60;99.90
8862;DHT22;4799;50.996;4.754;2022-08-14T06:15:47;18.70;99.90
8862;DHT22;4799;50.996;4.754;2022-08-14T06:18:15;18.80;99.90
8862;DHT22;4799;50.996;4.754;2022-08-14T06:20:41;18.90;99.90
8862;DHT22;4799;50.996;4.754;2022-08-14T06:23:06;18.90;99.90
8862;DHT22;4799;50.996;4.754;2022-08-14T06:25:32;19.10;99.90
8862;DHT22;4799;50.996;4.754;2022-08-14T06:27:58;19.10;99.90
8862;DHT22;4799;50.996;4.754;2022-08-14T06:30:26;19.30;99.90
8862;DHT22;4799;50.996;4.754;2022-08-14T06:32:52;19.40;99.90
8862;DHT22;4799;50.996;4.754;2022-08-14T06:35:18;19.40;99.90
8862;DHT22;4799;50.996;4.754;2022-08-14T06:37:50;19.50;99.90
8862;DHT22;4799;50.996;4.754;2022-08-14T06:40:19;19.60;99.90
8862;DHT22;4799;50.996;4.754;2022-08-14T06:42:45;19.70;99.90
8862;DHT22;4799;50.996;4.754;2022-08-14T06:45:11;19.90;99.90
8862;DHT22;4799;50.996;4.754;2022-08-14T06:47:40;20.00;99.70
8862;DHT22;4799;50.996;4.754;2022-08-14T06:50:09;20.10;99.50
8862;DHT22;4799;50.996;4.754;2022-08-14T06:52:36;20.20;99.10
8862;DHT22;4799;50.996;4.754;2022-08-14T06:55:03;20.30;98.80
8862;DHT22;4799;50.996;4.754;2022-08-14T06:57:43;20.40;98.40
8862;DHT22;4799;50.996;4.754;2022-08-14T07:00:25;20.60;97.70
8862;DHT22;4799;50.996;4.754;2022-08-14T07:02:51;20.70;97.10
8862;DHT22;4799;50.996;4.754;2022-08-14T07:05:35;20.80;96.20
8862;DHT22;4799;50.996;4.754;2022-08-14T07:08:31;21.00;95.50
8862;DHT22;4799;50.996;4.754;2022-08-14T07:11:00;21.10;94.40
8862;DHT22;4799;50.996;4.754;2022-08-14T07:13:27;21.30;93.50
8862;DHT22;4799;50.996;4.754;2022-08-14T07:15:55;21.40;93.20
8862;DHT22;4799;50.996;4.754;2022-08-14T07:18:24;21.50;92.50
8862;DHT22;4799;50.996;4.754;2022-08-14T07:20:50;21.70;92.10
8862;DHT22;4799;50.996;4.754;2022-08-14T07:23:18;21.80;91.50
8862;DHT22;4799;50.996;4.754;2022-08-14T07:25:44;22.00;90.30
8862;DHT22;4799;50.996;4.754;2022-08-14T07:28:13;22.10;89.40
8862;DHT22;4799;50.996;4.754;2022-08-14T07:30:40;22.20;88.50
8862;DHT22;4799;50.996;4.754;2022-08-14T07:33:07;22.40;86.90
8862;DHT22;4799;50.996;4.754;2022-08-14T07:35:34;22.50;84.80
8862;DHT22;4799;50.996;4.754;2022-08-14T07:38:00;22.60;84.80
8862;DHT22;4799;50.996;4.754;2022-08-14T07:40:26;22.70;83.20
8862;DHT22;4799;50.996;4.754;2022-08-14T07:42:52;22.70;81.60
8862;DHT22;4799;50.996;4.754;2022-08-14T07:45:18;22.90;80.10
8862;DHT22;4799;50.996;4.754;2022-08-14T07:47:44;23.00;78.80
8862;DHT22;4799;50.996;4.754;2022-08-14T07:50:15;23.10;79.00
8862;DHT22;4799;50.996;4.754;2022-08-14T07:52:42;23.30;77.80
8862;DHT22;4799;50.996;4.754;2022-08-14T07:55:10;23.50;76.70
8862;DHT22;4799;50.996;4.754;2022-08-14T07:57:45;23.70;74.80
8862;DHT22;4799;50.996;4.754;2022-08-14T08:00:17;23.80;74.10
8862;DHT22;4799;50.996;4.754;2022-08-14T08:02:46;23.90;72.80
8862;DHT22;4799;50.996;4.754;2022-08-14T08:05:13;24.10;73.10
8862;DHT22;4799;50.996;4.754;2022-08-14T08:07:40;24.30;71.30
8862;DHT22;4799;50.996;4.754;2022-08-14T08:10:25;24.40;70.60
8862;DHT22;4799;50.996;4.754;2022-08-14T08:13:11;24.50;69.50
8862;DHT22;4799;50.996;4.754;2022-08-14T08:15:44;24.60;68.60
8862;DHT22;4799;50.996;4.754;2022-08-14T08:18:13;24.70;67.20
8862;DHT22;4799;50.996;4.754;2022-08-14T08:20:48;24.90;65.60
8862;DHT22;4799;50.996;4.754;2022-08-14T08:23:16;25.10;63.40
8862;DHT22;4799;50.996;4.754;2022-08-14T08:25:44;25.20;61.70
8862;DHT22;4799;50.996;4.754;2022-08-14T08:28:14;25.30;61.70
8862;DHT22;4799;50.996;4.754;2022-08-14T08:31:01;25.40;61.60
8862;DHT22;4799;50.996;4.754;2022-08-14T08:33:30;25.50;61.90
8862;DHT22;4799;50.996;4.754;2022-08-14T08:36:00;25.70;61.30
8862;DHT22;4799;50.996;4.754;2022-08-14T08:38:27;25.80;60.70
8862;DHT22;4799;50.996;4.754;2022-08-14T08:40:55;26.00;60.20
8862;DHT22;4799;50.996;4.754;2022-08-14T08:43:34;26.10;59.10
8862;DHT22;4799;50.996;4.754;2022-08-14T08:46:02;26.30;58.40
8862;DHT22;4799;50.996;4.754;2022-08-14T08:48:42;26.40;57.60
8862;DHT22;4799;50.996;4.754;2022-08-14T08:51:08;26.60;56.90
8862;DHT22;4799;50.996;4.754;2022-08-14T08:53:35;26.80;56.60
8862;DHT22;4799;50.996;4.754;2022-08-14T08:56:02;27.10;55.60
8862;DHT22;4799;50.996;4.754;2022-08-14T08:58:28;27.20;54.80
8862;DHT22;4799;50.996;4.754;2022-08-14T09:00:57;27.40;54.50
8862;DHT22;4799;50.996;4.754;2022-08-14T09:03:26;27.60;53.90
8862;DHT22;4799;50.996;4.754;2022-08-14T09:05:56;27.70;53.60
8862;DHT22;4799;50.996;4.754;2022-08-14T09:08:28;27.90;51.90
8862;DHT22;4799;50.996;4.754;2022-08-14T09:10:55;28.10;51.00
8862;DHT22;4799;50.996;4.754;2022-08-14T09:13:22;28.30;50.70
8862;DHT22;4799;50.996;4.754;2022-08-14T09:15:52;28.30;49.80
8862;DHT22;4799;50.996;4.754;2022-08-14T09:18:19;28.40;49.40
8862;DHT22;4799;50.996;4.754;2022-08-14T09:20:49;28.50;48.30
8862;DHT22;4799;50.996;4.754;2022-08-14T09:23:15;28.50;48.00
8862;DHT22;4799;50.996;4.754;2022-08-14T09:25:44;28.60;48.70
8862;DHT22;4799;50.996;4.754;2022-08-14T09:28:11;28.60;47.90
8862;DHT22;4799;50.996;4.754;2022-08-14T09:30:40;28.70;47.90
8862;DHT22;4799;50.996;4.754;2022-08-14T09:44:47;29.20;44.20
8862;DHT22;4799;50.996;4.754;2022-08-14T09:47:15;29.20;45.50
8862;DHT22;4799;50.996;4.754;2022-08-14T09:49:41;29.30;45.80
8862;DHT22;4799;50.996;4.754;2022-08-14T09:52:15;29.40;45.40
8862;DHT22;4799;50.996;4.754;2022-08-14T09:54:43;29.50;45.30
8862;DHT22;4799;50.996;4.754;2022-08-14T09:57:10;29.50;45.00
8862;DHT22;4799;50.996;4.754;2022-08-14T09:59:47;29.60;44.00
8862;DHT22;4799;50.996;4.754;2022-08-14T10:02:29;29.70;44.00
8862;DHT22;4799;50.996;4.754;2022-08-14T10:05:06;29.80;44.20
8862;DHT22;4799;50.996;4.754;2022-08-14T10:07:35;29.90;43.20
8862;DHT22;4799;50.996;4.754;2022-08-14T10:10:03;29.90;43.30
8862;DHT22;4799;50.996;4.754;2022-08-14T10:12:46;30.00;43.60
8862;DHT22;4799;50.996;4.754;2022-08-14T10:15:19;30.00;43.40
8862;DHT22;4799;50.996;4.754;2022-08-14T10:17:46;30.00;43.20
8862;DHT22;4799;50.996;4.754;2022-08-14T10:20:15;30.10;43.70
8862;DHT22;4799;50.996;4.754;2022-08-14T10:22:41;30.20;43.60
8862;DHT22;4799;50.996;4.754;2022-08-14T10:25:13;30.30;43.10
8862;DHT22;4799;50.996;4.754;2022-08-14T10:27:40;30.40;43.80
8862;DHT22;4799;50.996;4.754;2022-08-14T10:30:15;30.40;43.20
8862;DHT22;4799;50.996;4.754;2022-08-14T10:32:45;30.50;42.80
8862;DHT22;4799;50.996;4.754;2022-08-14T10:35:12;30.40;42.30
8862;DHT22;4799;50.996;4.754;2022-08-14T10:37:40;30.40;42.30
8862;DHT22;4799;50.996;4.754;2022-08-14T10:40:08;30.20;42.50
8862;DHT22;4799;50.996;4.754;2022-08-14T10:42:39;30.20;43.00
8862;DHT22;4799;50.996;4.754;2022-08-14T10:45:20;30.20;43.40
8862;DHT22;4799;50.996;4.754;2022-08-14T10:47:47;30.20;42.40
8862;DHT22;4799;50.996;4.754;2022-08-14T10:50:14;30.20;42.50
8862;DHT22;4799;50.996;4.754;2022-08-14T10:52:40;30.20;42.80
8862;DHT22;4799;50.996;4.754;2022-08-14T10:55:09;30.10;43.00
8862;DHT22;4799;50.996;4.754;2022-08-14T10:57:52;30.00;42.10
8862;DHT22;4799;50.996;4.754;2022-08-14T11:00:24;30.00;42.10
8862;DHT22;4799;50.996;4.754;2022-08-14T11:03:08;30.00;41.50
8862;DHT22;4799;50.996;4.754;2022-08-14T11:05:51;30.00;41.40
8862;DHT22;4799;50.996;4.754;2022-08-14T11:08:28;30.20;41.30
8862;DHT22;4799;50.996;4.754;2022-08-14T11:10:57;30.20;41.60
8862;DHT22;4799;50.996;4.754;2022-08-14T11:13:29;30.30;41.30
8862;DHT22;4799;50.996;4.754;2022-08-14T11:15:59;30.40;41.20
8862;DHT22;4799;50.996;4.754;2022-08-14T11:18:26;30.60;41.20
8862;DHT22;4799;50.996;4.754;2022-08-14T11:20:54;30.80;41.10
8862;DHT22;4799;50.996;4.754;2022-08-14T11:23:28;30.90;40.70
8862;DHT22;4799;50.996;4.754;2022-08-14T11:25:57;31.00;40.90
8862;DHT22;4799;50.996;4.754;2022-08-14T11:28:26;31.30;40.30
8862;DHT22;4799;50.996;4.754;2022-08-14T11:30:53;31.40;39.70
8862;DHT22;4799;50.996;4.754;2022-08-14T11:33:25;31.50;39.00
8862;DHT22;4799;50.996;4.754;2022-08-14T11:35:56;31.40;38.90
8862;DHT22;4799;50.996;4.754;2022-08-14T11:38:26;31.40;38.80
8862;DHT22;4799;50.996;4.754;2022-08-14T11:40:55;31.50;39.30
8862;DHT22;4799;50.996;4.754;2022-08-14T11:43:26;31.60;39.00
8862;DHT22;4799;50.996;4.754;2022-08-14T11:45:55;31.60;38.00
8862;DHT22;4799;50.996;4.754;2022-08-14T11:48:25;31.70;38.90
8862;DHT22;4799;50.996;4.754;2022-08-14T11:50:51;31.80;39.00
8862;DHT22;4799;50.996;4.754;2022-08-14T11:53:24;31.90;39.10
8862;DHT22;4799;50.996;4.754;2022-08-14T11:56:00;31.90;38.60
8862;DHT22;4799;50.996;4.754;2022-08-14T11:58:35;32.00;37.80
8862;DHT22;4799;50.996;4.754;2022-08-14T12:01:06;32.10;38.10
8862;DHT22;4799;50.996;4.754;2022-08-14T12:06:11;32.10;37.90
8862;DHT22;4799;50.996;4.754;2022-08-14T12:08:37;32.00;37.60
8862;DHT22;4799;50.996;4.754;2022-08-14T12:11:04;32.00;37.50
8862;DHT22;4799;50.996;4.754;2022-08-14T12:13:31;32.00;37.30
8862;DHT22;4799;50.996;4.754;2022-08-14T12:16:09;32.00;37.70
8862;DHT22;4799;50.996;4.754;2022-08-14T12:18:40;32.10;38.00
8862;DHT22;4799;50.996;4.754;2022-08-14T12:21:20;32.10;37.90
8862;DHT22;4799;50.996;4.754;2022-08-14T12:24:06;32.20;38.10
8862;DHT22;4799;50.996;4.754;2022-08-14T12:26:33;32.20;38.30
8862;DHT22;4799;50.996;4.754;2022-08-14T12:29:14;32.20;37.80
8862;DHT22;4799;50.996;4.754;2022-08-14T12:31:42;32.10;37.30
8862;DHT22;4799;50.996;4.754;2022-08-14T12:34:12;32.20;37.40
8862;DHT22;4799;50.996;4.754;2022-08-14T12:36:39;32.20;37.40
8862;DHT22;4799;50.996;4.754;2022-08-14T12:39:22;32.20;36.50
8862;DHT22;4799;50.996;4.754;2022-08-14T12:41:53;32.40;35.50
8862;DHT22;4799;50.996;4.754;2022-08-14T12:44:40;32.40;35.80
8862;DHT22;4799;50.996;4.754;2022-08-14T12:47:13;32.50;35.00
8862;DHT22;4799;50.996;4.754;2022-08-14T12:49:52;32.60;35.40
8862;DHT22;4799;50.996;4.754;2022-08-14T12:52:37;32.80;34.90
8862;DHT22;4799;50.996;4.754;2022-08-14T12:55:08;32.90;34.90
8862;DHT22;4799;50.996;4.754;2022-08-14T12:57:45;33.00;34.50
8862;DHT22;4799;50.996;4.754;2022-08-14T13:00:17;33.10;34.50
8862;DHT22;4799;50.996;4.754;2022-08-14T13:02:52;33.20;34.50
8862;DHT22;4799;50.996;4.754;2022-08-14T13:05:22;33.30;34.40
8862;DHT22;4799;50.996;4.754;2022-08-14T13:07:48;33.30;35.00
8862;DHT22;4799;50.996;4.754;2022-08-14T13:10:18;33.40;34.30
8862;DHT22;4799;50.996;4.754;2022-08-14T13:12:49;33.40;33.90
8862;DHT22;4799;50.996;4.754;2022-08-14T13:15:18;33.40;33.80
8862;DHT22;4799;50.996;4.754;2022-08-14T13:17:46;33.40;34.10
8862;DHT22;4799;50.996;4.754;2022-08-14T13:20:18;33.40;34.10
8862;DHT22;4799;50.996;4.754;2022-08-14T13:22:44;33.40;34.50
8862;DHT22;4799;50.996;4.754;2022-08-14T13:25:21;33.50;34.50
8862;DHT22;4799;50.996;4.754;2022-08-14T13:27:50;33.50;35.00
8862;DHT22;4799;50.996;4.754;2022-08-14T13:30:17;33.60;34.40
8862;DHT22;4799;50.996;4.754;2022-08-14T13:32:44;33.60;34.10
8862;DHT22;4799;50.996;4.754;2022-08-14T13:35:12;33.60;33.90
8862;DHT22;4799;50.996;4.754;2022-08-14T13:37:39;33.60;33.90
8862;DHT22;4799;50.996;4.754;2022-08-14T13:40:06;33.70;34.10
8862;DHT22;4799;50.996;4.754;2022-08-14T13:42:33;33.80;34.30
8862;DHT22;4799;50.996;4.754;2022-08-14T13:45:01;33.90;34.00
8862;DHT22;4799;50.996;4.754;2022-08-14T13:47:29;33.90;33.80
8862;DHT22;4799;50.996;4.754;2022-08-14T13:49:57;34.00;33.90
8862;DHT22;4799;50.996;4.754;2022-08-14T13:52:40;34.10;34.20
8862;DHT22;4799;50.996;4.754;2022-08-14T13:55:06;34.20;33.50
8862;DHT22;4799;50.996;4.754;2022-08-14T13:57:41;34.30;33.70
8862;DHT22;4799;50.996;4.754;2022-08-14T14:00:10;34.30;33.40
8862;DHT22;4799;50.996;4.754;2022-08-14T14:02:41;34.30;33.00
8862;DHT22;4799;50.996;4.754;2022-08-14T14:05:08;34.30;33.40
8862;DHT22;4799;50.996;4.754;2022-08-14T14:07:37;34.30;33.40
8862;DHT22;4799;50.996;4.754;2022-08-14T14:10:08;34.30;33.30
8862;DHT22;4799;50.996;4.754;2022-08-14T14:12:35;34.30;33.10
8862;DHT22;4799;50.996;4.754;2022-08-14T14:15:04;34.30;33.20
8862;DHT22;4799;50.996;4.754;2022-08-14T14:17:35;34.30;33.40
8862;DHT22;4799;50.996;4.754;2022-08-14T14:20:02;34.30;33.40
8862;DHT22;4799;50.996;4.754;2022-08-14T14:22:28;34.20;33.20
8862;DHT22;4799;50.996;4.754;2022-08-14T14:24:55;34.30;33.40
8862;DHT22;4799;50.996;4.754;2022-08-14T14:27:25;34.40;33.40
8862;DHT22;4799;50.996;4.754;2022-08-14T14:29:56;34.50;33.40
8862;DHT22;4799;50.996;4.754;2022-08-14T14:32:26;34.60;33.30
8862;DHT22;4799;50.996;4.754;2022-08-14T14:34:53;34.80;33.10
8862;DHT22;4799;50.996;4.754;2022-08-14T14:37:20;34.90;33.80
8862;DHT22;4799;50.996;4.754;2022-08-14T14:39:47;35.10;32.70
8862;DHT22;4799;50.996;4.754;2022-08-14T14:42:17;35.20;32.70
8862;DHT22;4799;50.996;4.754;2022-08-14T14:44:43;35.30;32.50
8862;DHT22;4799;50.996;4.754;2022-08-14T14:47:14;35.40;32.80
8862;DHT22;4799;50.996;4.754;2022-08-14T14:49:42;35.50;32.80
8862;DHT22;4799;50.996;4.754;2022-08-14T14:52:09;35.60;32.60
8862;DHT22;4799;50.996;4.754;2022-08-14T14:54:35;35.70;32.70
8862;DHT22;4799;50.996;4.754;2022-08-14T14:57:02;35.70;32.20
8862;DHT22;4799;50.996;4.754;2022-08-14T14:59:31;35.70;32.00
8862;DHT22;4799;50.996;4.754;2022-08-14T15:02:01;35.80;32.10
8862;DHT22;4799;50.996;4.754;2022-08-14T15:04:27;36.00;31.90
8862;DHT22;4799;50.996;4.754;2022-08-14T15:06:53;35.90;31.40
8862;DHT22;4799;50.996;4.754;2022-08-14T15:09:19;35.90;31.20
8862;DHT22;4799;50.996;4.754;2022-08-14T15:11:45;35.90;31.60
8862;DHT22;4799;50.996;4.754;2022-08-14T15:14:11;36.00;31.00
8862;DHT22;4799;50.996;4.754;2022-08-14T15:16:37;36.00;31.30
8862;DHT22;4799;50.996;4.754;2022-08-14T15:19:03;36.10;31.30
8862;DHT22;4799;50.996;4.754;2022-08-14T15:21:30;36.10;30.50
8862;DHT22;4799;50.996;4.754;2022-08-14T15:23:56;36.00;30.60
8862;DHT22;4799;50.996;4.754;2022-08-14T15:26:23;36.00;30.90
8862;DHT22;4799;50.996;4.754;2022-08-14T15:28:50;36.00;30.90
8862;DHT22;4799;50.996;4.754;2022-08-14T15:31:17;35.90;30.90
8862;DHT22;4799;50.996;4.754;2022-08-14T15:33:42;35.80;31.00
8862;DHT22;4799;50.996;4.754;2022-08-14T15:36:27;35.70;31.10
8862;DHT22;4799;50.996;4.754;2022-08-14T15:38:54;35.70;30.90
8862;DHT22;4799;50.996;4.754;2022-08-14T15:41:20;35.70;30.70
8862;DHT22;4799;50.996;4.754;2022-08-14T15:43:46;35.60;30.80
8862;DHT22;4799;50.996;4.754;2022-08-14T15:46:12;35.60;31.20
8862;DHT22;4799;50.996;4.754;2022-08-14T15:48:37;35.60;31.30
8862;DHT22;4799;50.996;4.754;2022-08-14T15:51:03;35.50;31.20
8862;DHT22;4799;50.996;4.754;2022-08-14T15:53:29;35.50;31.30
8862;DHT22;4799;50.996;4.754;2022-08-14T15:55:55;35.40;31.30
8862;DHT22;4799;50.996;4.754;2022-08-14T15:58:22;35.30;32.00
8862;DHT22;4799;50.996;4.754;2022-08-14T16:00:49;35.20;31.40
8862;DHT22;4799;50.996;4.754;2022-08-14T16:03:34;35.20;31.50
8862;DHT22;4799;50.996;4.754;2022-08-14T16:06:01;35.10;31.40
8862;DHT22;4799;50.996;4.754;2022-08-14T16:08:27;35.00;31.40
8862;DHT22;4799;50.996;4.754;2022-08-14T16:10:52;34.90;31.60
8862;DHT22;4799;50.996;4.754;2022-08-14T16:13:18;34.80;31.80
8862;DHT22;4799;50.996;4.754;2022-08-14T16:15:48;34.70;32.00
8862;DHT22;4799;50.996;4.754;2022-08-14T16:18:14;34.70;32.30
8862;DHT22;4799;50.996;4.754;2022-08-14T16:20:43;34.60;32.60
8862;DHT22;4799;50.996;4.754;2022-08-14T16:23:12;34.50;32.80
8862;DHT22;4799;50.996;4.754;2022-08-14T16:25:43;34.50;32.90
8862;DHT22;4799;50.996;4.754;2022-08-14T16:28:16;34.50;32.90
8862;DHT22;4799;50.996;4.754;2022-08-14T16:30:42;34.40;33.10